Time;durP1;ratioP1;P1;durP2;ratioP2;P2;SDS_P1;SDS_P2;PMS_P1;PMS_P2;Temp;Humidity;BMP_temperature;BMP_pressure;BME280_temperature;BME280_humidity;BME280_pressure;Samples;Min_cycle;Max_cycle;Signal;HPM_P1;HPM_P2
2022/05/07 00:02:00;;;;;;;29.88;19.92;;;;;;;10.95;100.00;97185.72;4923227;29;20040;-68
2022/05/07 00:04:25;;;;;;;31.83;20.38;;;;;;;10.92;100.00;97186.44;4917712;29;20052;-67
2022/05/07 00:06:51;;;;;;;32.05;19.48;;;;;;;11.20;100.00;97189.00;4924270;29;20050;-68
2022/05/07 00:09:18;;;;;;;29.80;19.83;;;;;;;11.44;100.00;97177.78;4917226;29;20036;-68
2022/05/07 00:11:46;;;;;;;29.00;17.98;;;;;;;11.54;100.00;97178.34;4936345;28;20051;-69
2022/05/07 00:14:11;;;;;;;28.92;18.27;;;;;;;11.57;100.00;97180.38;4939396;28;20098;-68
2022/05/07 00:19:20;;;;;;;29.42;17.90;;;;;;;11.53;100.00;97174.03;4930748;28;20099;-67
2022/05/07 00:21:46;;;;;;;26.73;17.55;;;;;;;11.57;100.00;97164.72;4933902;28;20468;-69
2022/05/07 00:24:11;;;;;;;26.33;18.27;;;;;;;11.55;100.00;97166.22;4925603;28;20050;-66
2022/05/07 00:26:37;;;;;;;28.35;18.08;;;;;;;11.54;100.00;97159.16;4935894;28;20050;-69
2022/05/07 00:29:02;;;;;;;24.33;17.23;;;;;;;11.51;100.00;97162.63;4950093;28;20214;-64
2022/05/07 00:31:27;;;;;;;23.30;16.98;;;;;;;11.54;100.00;97162.72;4944050;29;20039;-68
2022/05/07 00:33:53;;;;;;;27.77;19.75;;;;;;;11.59;100.00;97162.38;4944703;28;20043;-68
2022/05/07 00:36:18;;;;;;;24.70;17.33;;;;;;;11.44;100.00;97161.31;4919427;28;20515;-68
2022/05/07 00:38:43;;;;;;;27.35;18.10;;;;;;;11.45;100.00;97153.88;4934969;29;20196;-68
2022/05/07 00:41:09;;;;;;;28.67;17.80;;;;;;;11.49;100.00;97163.00;4936172;28;20040;-69
2022/05/07 00:43:35;;;;;;;22.75;16.58;;;;;;;11.52;100.00;97154.03;4941929;29;20133;-69
2022/05/07 00:46:01;;;;;;;24.55;17.00;;;;;;;11.46;100.00;97145.28;4946685;28;20110;-67
2022/05/07 00:48:26;;;;;;;21.95;16.35;;;;;;;11.52;100.00;97154.03;4934932;29;20019;-68
2022/05/07 00:53:37;;;;;;;23.55;17.27;;;;;;;11.44;100.00;97150.34;4935334;29;20063;-68
2022/05/07 00:56:03;;;;;;;26.75;18.30;;;;;;;11.34;100.00;97137.22;4956827;29;20050;-68
2022/05/07 00:58:29;;;;;;;28.48;18.52;;;;;;;11.31;100.00;97137.13;4973065;29;20035;-67
2022/05/07 01:00:54;;;;;;;28.30;18.20;;;;;;;11.39;100.00;97142.41;4955622;28;20039;-65
2022/05/07 01:03:20;;;;;;;27.25;19.20;;;;;;;11.38;100.00;97143.56;4953177;29;20039;-68
2022/05/07 01:05:45;;;;;;;29.08;18.88;;;;;;;11.34;100.00;97139.16;4939667;28;20114;-67
2022/05/07 01:08:12;;;;;;;26.38;19.40;;;;;;;11.26;100.00;97144.50;4933522;29;20494;-68
2022/05/07 01:10:38;;;;;;;26.52;17.25;;;;;;;11.28;100.00;97146.88;4934834;29;20039;-68
2022/05/07 01:13:04;;;;;;;27.77;17.65;;;;;;;11.44;100.00;97144.06;4934830;29;20039;-68
2022/05/07 01:15:30;;;;;;;26.77;18.05;;;;;;;11.61;100.00;97140.09;4933855;29;20378;-69
2022/05/07 01:17:56;;;;;;;28.02;19.17;;;;;;;11.60;100.00;97136.56;4934145;29;20040;-68
2022/05/07 01:20:21;;;;;;;31.67;18.85;;;;;;;11.50;100.00;97133.59;4934433;29;20036;-68
2022/05/07 01:22:47;;;;;;;29.00;18.45;;;;;;;11.44;100.00;97131.16;4936247;29;20404;-68
2022/05/07 01:25:13;;;;;;;26.05;18.67;;;;;;;11.35;100.00;97129.78;4952009;29;20042;-66
2022/05/07 01:27:38;;;;;;;28.55;19.52;;;;;;;11.25;100.00;97134.69;4941237;29;20036;-69
2022/05/07 01:30:04;;;;;;;33.30;18.45;;;;;;;11.18;100.00;97133.75;4934780;29;20497;-69
2022/05/07 01:32:30;;;;;;;32.95;20.08;;;;;;;11.29;100.00;97129.28;4934346;29;20095;-68
2022/05/07 01:34:55;;;;;;;32.25;19.20;;;;;;;11.35;100.00;97130.56;4934268;29;20035;-68
2022/05/07 01:37:21;;;;;;;28.73;19.60;;;;;;;11.33;100.00;97129.38;4932279;29;20122;-68
2022/05/07 01:39:46;;;;;;;29.13;20.95;;;;;;;11.24;100.00;97126.84;4933924;29;20472;-68
2022/05/07 01:42:12;;;;;;;28.38;18.55;;;;;;;11.22;100.00;97121.69;4934183;29;20566;-68
2022/05/07 01:44:38;;;;;;;27.60;18.35;;;;;;;11.26;100.00;97121.78;4934013;29;20535;-69
2022/05/07 01:49:47;;;;;;;29.10;17.67;;;;;;;11.33;100.00;97130.16;4934087;29;20024;-68
2022/05/07 01:52:14;;;;;;;24.77;16.95;;;;;;;11.34;100.00;97134.47;4934063;29;20039;-69
2022/05/07 01:54:39;;;;;;;26.35;17.23;;;;;;;11.31;100.00;97129.72;4934008;29;20539;-68
2022/05/07 01:57:05;;;;;;;25.85;17.30;;;;;;;11.30;100.00;97136.34;4933114;29;20043;-69
2022/05/07 01:59:30;;;;;;;25.52;17.50;;;;;;;11.17;100.00;97127.47;4932603;29;20028;-69
2022/05/07 02:01:56;;;;;;;28.25;18.85;;;;;;;11.15;100.00;97126.25;4933868;29;20039;-69
2022/05/07 02:04:21;;;;;;;25.27;18.02;;;;;;;11.14;100.00;97128.19;4933757;29;20032;-69
2022/05/07 02:06:47;;;;;;;25.90;16.52;;;;;;;11.08;100.00;97124.16;4932877;29;20039;-68
2022/05/07 02:09:12;;;;;;;27.17;17.60;;;;;;;11.17;100.00;97123.94;4932127;29;20031;-67
2022/05/07 02:11:38;;;;;;;26.00;17.70;;;;;;;11.25;100.00;97120.19;4933461;29;20032;-67
2022/05/07 02:14:04;;;;;;;28.52;18.38;;;;;;;11.19;100.00;97122.41;4933499;29;20396;-68
2022/05/07 02:16:30;;;;;;;24.77;17.25;;;;;;;11.23;100.00;97125.22;4936908;29;20049;-68
2022/05/07 02:18:56;;;;;;;29.80;18.05;;;;;;;11.28;100.00;97116.72;4934216;29;20440;-69
2022/05/07 02:21:21;;;;;;;27.63;17.67;;;;;;;11.33;100.00;97118.41;4933694;29;20033;-68
2022/05/07 02:23:47;;;;;;;25.40;17.80;;;;;;;11.34;100.00;97117.22;4933219;29;20039;-69
2022/05/07 02:26:12;;;;;;;25.27;17.73;;;;;;;11.15;100.00;97112.53;4931371;29;20042;-70
2022/05/07 02:28:38;;;;;;;24.75;18.02;;;;;;;11.10;100.00;97108.13;4932809;29;20540;-68
2022/05/07 02:31:03;;;;;;;28.98;19.58;;;;;;;11.02;100.00;97107.19;4931792;29;20063;-68
2022/05/07 02:33:28;;;;;;;25.73;17.35;;;;;;;11.06;100.00;97112.75;4925161;29;20130;-68
2022/05/07 02:35:54;;;;;;;27.58;18.88;;;;;;;11.09;100.00;97112.00;4932565;29;20102;-69
2022/05/07 02:38:19;;;;;;;27.25;18.55;;;;;;;11.05;100.00;97106.47;4933075;29;20035;-68
2022/05/07 02:43:28;;;;;;;25.63;17.58;;;;;;;10.96;100.00;97105.88;4934158;29;20148;-68
2022/05/07 02:45:54;;;;;;;24.95;18.00;;;;;;;10.92;100.00;97109.72;4934980;29;20079;-68
2022/05/07 02:48:19;;;;;;;26.13;19.23;;;;;;;10.88;100.00;97110.41;4934547;29;20040;-69
2022/05/07 02:50:45;;;;;;;32.22;18.70;;;;;;;10.90;100.00;97108.09;4934175;29;20098;-69
2022/05/07 02:53:10;;;;;;;26.55;18.45;;;;;;;10.87;100.00;97103.34;4932333;29;20535;-68
2022/05/07 02:55:35;;;;;;;25.50;18.23;;;;;;;10.83;100.00;97109.91;4932467;29;20114;-66
2022/05/07 02:58:01;;;;;;;27.67;19.67;;;;;;;10.79;100.00;97100.81;4931563;29;20027;-67
2022/05/07 03:00:26;;;;;;;28.27;19.50;;;;;;;10.46;100.00;97104.75;4917508;29;20055;-67
2022/05/07 03:02:51;;;;;;;28.70;19.85;;;;;;;10.31;100.00;97109.91;4914095;29;20035;-66
2022/05/07 03:05:17;;;;;;;32.88;21.90;;;;;;;10.24;100.00;97100.69;4914615;29;20477;-68
2022/05/07 03:07:42;;;;;;;30.00;20.85;;;;;;;10.16;100.00;97105.22;4914157;29;20048;-68
2022/05/07 03:10:08;;;;;;;31.40;21.17;;;;;;;10.09;100.00;97100.34;4914392;29;20028;-68
2022/05/07 03:12:34;;;;;;;30.48;21.33;;;;;;;10.14;100.00;97105.56;4914834;29;20031;-69
2022/05/07 03:14:59;;;;;;;30.55;20.50;;;;;;;10.22;100.00;97106.53;4914897;29;20036;-68
2022/05/07 03:17:26;;;;;;;29.27;20.73;;;;;;;10.30;100.00;97108.31;4935948;29;20035;-67
2022/05/07 03:19:52;;;;;;;31.25;20.88;;;;;;;10.40;100.00;97106.19;4944749;28;20500;-68
2022/05/07 03:22:17;;;;;;;32.50;20.60;;;;;;;10.43;100.00;97102.75;4951412;28;20031;-69
2022/05/07 03:24:43;;;;;;;28.67;19.63;;;;;;;10.40;100.00;97103.47;4941331;29;20438;-69
2022/05/07 03:27:08;;;;;;;27.67;19.90;;;;;;;10.40;100.00;97104.25;4948327;29;20036;-67
2022/05/07 03:29:33;;;;;;;30.75;20.05;;;;;;;10.46;100.00;97104.75;4940859;29;20039;-68
2022/05/07 03:31:59;;;;;;;27.33;20.10;;;;;;;10.49;100.00;97102.09;4951621;29;20035;-68
2022/05/07 03:34:24;;;;;;;31.02;18.88;;;;;;;10.47;100.00;97103.63;4944106;29;20187;-69
2022/05/07 03:36:50;;;;;;;27.33;18.50;;;;;;;10.48;100.00;97099.75;4944658;28;20094;-68
2022/05/07 03:39:16;;;;;;;27.90;19.13;;;;;;;10.36;100.00;97097.91;4952290;28;20035;-68
2022/05/07 03:41:41;;;;;;;24.15;17.60;;;;;;;10.40;100.00;97103.47;4954626;28;20178;-69
2022/05/07 03:44:07;;;;;;;30.88;18.52;;;;;;;10.45;100.00;97097.72;4949182;29;20035;-68
2022/05/07 03:46:33;;;;;;;25.55;17.90;;;;;;;10.50;100.00;97100.97;4946073;28;20086;-67
2022/05/07 03:48:58;;;;;;;24.67;16.92;;;;;;;10.44;100.00;97104.31;4948639;29;20042;-68
2022/05/07 03:51:23;;;;;;;26.42;16.75;;;;;;;10.44;100.00;97101.59;4956145;29;20027;-67
2022/05/07 03:53:49;;;;;;;23.92;16.67;;;;;;;10.50;100.00;97103.72;4954935;29;20586;-68
2022/05/07 03:56:14;;;;;;;21.77;16.30;;;;;;;10.58;100.00;97099.19;4955909;28;20135;-68
2022/05/07 03:58:40;;;;;;;22.75;15.25;;;;;;;10.63;100.00;97092.66;4946133;29;20437;-66
2022/05/07 04:01:08;;;;;;;25.00;14.82;;;;;;;10.64;100.00;97097.78;4946261;29;20031;-67
2022/05/07 04:03:33;;;;;;;20.33;14.25;;;;;;;10.66;100.00;97100.13;4950099;28;20493;-69
2022/05/07 04:05:59;;;;;;;20.13;13.95;;;;;;;10.68;100.00;97098.63;4956776;29;20035;-68
2022/05/07 04:08:25;;;;;;;17.27;13.45;;;;;;;10.69;100.00;97092.00;4956274;28;20066;-68
2022/05/07 04:10:50;;;;;;;24.67;14.15;;;;;;;10.61;100.00;97097.69;4956007;28;20090;-68
2022/05/07 04:13:16;;;;;;;21.52;13.85;;;;;;;10.60;100.00;97094.13;4945532;28;20505;-67
2022/05/07 04:15:45;;;;;;;28.92;14.85;;;;;;;10.54;100.00;97094.78;4944989;29;20059;-66
2022/05/07 04:18:11;;;;;;;19.83;13.57;;;;;;;10.65;100.00;97101.28;4952158;29;20039;-67
2022/05/07 04:20:37;;;;;;;20.73;14.45;;;;;;;10.66;100.00;97105.59;4947593;28;20043;-68
2022/05/07 04:23:03;;;;;;;21.02;13.45;;;;;;;10.67;100.00;97110.72;4946630;29;20075;-68
2022/05/07 04:25:29;;;;;;;22.25;13.90;;;;;;;10.71;100.00;97111.63;4950617;29;20039;-68
2022/05/07 04:27:55;;;;;;;18.83;13.02;;;;;;;10.74;100.00;97106.56;4947600;28;20366;-68
2022/05/07 04:30:21;;;;;;;18.25;13.23;;;;;;;10.78;100.00;97101.97;4947408;29;20062;-69
2022/05/07 04:32:47;;;;;;;17.35;12.75;;;;;;;10.83;100.00;97104.44;4955321;28;20078;-67
2022/05/07 04:35:12;;;;;;;22.88;13.45;;;;;;;10.85;100.00;97102.13;4943665;28;20458;-67
2022/05/07 04:37:37;;;;;;;19.83;13.38;;;;;;;10.82;100.00;97097.34;4952302;29;20041;-67
2022/05/07 04:40:03;;;;;;;19.70;13.50;;;;;;;10.59;100.00;97106.25;4961244;28;20034;-67
2022/05/07 04:42:29;;;;;;;19.23;13.40;;;;;;;10.57;100.00;97099.53;4955176;29;20110;-65
2022/05/07 04:44:54;;;;;;;22.60;13.85;;;;;;;10.60;100.00;97102.34;4948841;29;20435;-68
2022/05/07 04:47:20;;;;;;;23.10;13.32;;;;;;;10.74;100.00;97107.38;4940632;29;20076;-68
2022/05/07 04:49:45;;;;;;;18.25;12.80;;;;;;;10.86;100.00;97101.75;4944425;29;20397;-66
2022/05/07 04:52:10;;;;;;;20.00;12.93;;;;;;;10.76;100.00;97110.53;4934098;29;20111;-68
2022/05/07 04:54:36;;;;;;;21.10;13.95;;;;;;;10.74;100.00;97109.31;4941833;29;20067;-67
2022/05/07 04:57:02;;;;;;;18.73;13.02;;;;;;;10.76;100.00;97107.00;4938501;29;20086;-66
2022/05/07 04:59:28;;;;;;;21.40;13.70;;;;;;;10.82;100.00;97111.03;4941656;29;20039;-68
2022/05/07 05:01:53;;;;;;;17.80;12.40;;;;;;;10.92;100.00;97104.22;4947316;29;20051;-65
2022/05/07 05:04:19;;;;;;;17.52;13.00;;;;;;;11.07;100.00;97106.91;4951885;29;20058;-67
2022/05/07 05:06:45;;;;;;;17.63;12.10;;;;;;;11.18;100.00;97114.53;4967799;28;20485;-66
2022/05/07 05:09:12;;;;;;;16.63;12.35;;;;;;;11.16;100.00;97117.66;4940881;28;20036;-66
2022/05/07 05:11:38;;;;;;;17.65;13.27;;;;;;;11.19;100.00;97114.19;4957084;29;20027;-66
2022/05/07 05:16:48;;;;;;;19.35;12.90;;;;;;;11.08;100.00;97116.72;4946060;29;20031;-69
2022/05/07 05:19:14;;;;;;;20.02;13.18;;;;;;;11.10;100.00;97119.09;4947538;29;20031;-67
2022/05/07 05:21:39;;;;;;;17.30;12.82;;;;;;;11.18;100.00;97126.31;4953398;29;20061;-68
2022/05/07 05:24:05;;;;;;;18.42;12.68;;;;;;;11.29;100.00;97118.31;4937328;29;20078;-68
2022/05/07 05:26:30;;;;;;;17.73;12.05;;;;;;;11.35;100.00;97127.06;4954048;29;20078;-68
2022/05/07 05:28:56;;;;;;;20.35;12.40;;;;;;;11.28;100.00;97122.22;4944736;29;20027;-69
2022/05/07 05:31:23;;;;;;;17.35;12.25;;;;;;;11.16;100.00;97130.56;4949851;29;20443;-68
2022/05/07 05:33:48;;;;;;;18.65;11.93;;;;;;;11.21;100.00;97128.31;4950581;28;20036;-67
2022/05/07 05:36:14;;;;;;;18.80;13.13;;;;;;;11.28;100.00;97135.91;4945886;28;20041;-69
2022/05/07 05:38:40;;;;;;;20.25;14.30;;;;;;;11.20;100.00;97129.50;4953742;28;20047;-68
2022/05/07 05:41:05;;;;;;;18.17;13.40;;;;;;;11.37;100.00;97135.72;4953762;28;20043;-68
2022/05/07 05:43:31;;;;;;;18.08;12.98;;;;;;;11.50;100.00;97133.59;4944907;29;20636;-67
2022/05/07 05:45:57;;;;;;;15.93;12.73;;;;;;;11.66;100.00;97143.31;4939675;29;20143;-68
2022/05/07 05:48:24;;;;;;;16.45;11.75;;;;;;;11.77;100.00;97145.50;4951435;28;20068;-68
2022/05/07 05:50:49;;;;;;;18.83;12.73;;;;;;;11.73;100.00;97139.16;4954500;29;20233;-67
2022/05/07 05:53:15;;;;;;;17.15;12.23;;;;;;;11.74;100.00;97144.28;4992643;23;20046;-65
2022/05/07 05:55:40;;;;;;;17.15;12.35;;;;;;;11.80;100.00;97148.28;4992977;28;20402;-67
2022/05/07 05:58:06;;;;;;;21.85;12.20;;;;;;;12.02;100.00;97148.72;4989962;28;20034;-65
2022/05/07 06:00:31;;;;;;;16.13;11.35;;;;;;;12.19;100.00;97152.91;4974026;28;20030;-67
2022/05/07 06:02:56;;;;;;;22.23;12.57;;;;;;;12.12;100.00;97144.56;4992084;28;20044;-67
2022/05/07 06:05:22;;;;;;;20.50;12.95;;;;;;;12.08;100.00;97157.44;4992231;28;20073;-66
2022/05/07 06:07:47;;;;;;;18.83;14.23;;;;;;;11.92;100.00;97147.38;4973049;28;20142;-66
2022/05/07 06:10:13;;;;;;;17.85;14.23;;;;;;;11.86;100.00;97148.78;4987000;28;20076;-66
2022/05/07 06:12:38;;;;;;;20.23;12.50;;;;;;;11.89;100.00;97153.56;4990632;28;20040;-65
2022/05/07 06:15:05;;;;;;;21.60;13.50;;;;;;;12.12;100.00;97156.34;4992209;28;20034;-66
2022/05/07 06:17:31;;;;;;;16.67;12.23;;;;;;;12.36;100.00;97152.44;4992810;28;20034;-64
2022/05/07 06:19:56;;;;;;;18.33;12.02;;;;;;;12.46;100.00;97152.97;4993054;28;20455;-66
2022/05/07 06:22:22;;;;;;;19.20;12.93;;;;;;;12.37;100.00;97159.53;4975343;28;20072;-65
2022/05/07 06:27:31;;;;;;;17.23;11.88;;;;;;;12.76;100.00;97151.09;4990625;28;20542;-64
2022/05/07 06:30:01;;;;;;;17.45;12.20;;;;;;;13.13;100.00;97155.94;4992315;28;20098;-64
2022/05/07 06:32:37;;;;;;;17.30;12.45;;;;;;;13.35;100.00;97156.25;4975111;28;20030;-66
2022/05/07 06:35:04;;;;;;;18.15;11.27;;;;;;;13.53;100.00;97153.72;4992489;28;20483;-65
2022/05/07 06:37:30;;;;;;;17.27;11.32;;;;;;;13.65;100.00;97158.19;4991470;28;20118;-65
2022/05/07 06:39:56;;;;;;;17.35;11.85;;;;;;;13.76;100.00;97148.88;4990132;28;20053;-65
2022/05/07 06:42:22;;;;;;;15.98;11.35;;;;;;;14.01;100.00;97153.06;4991939;28;20081;-66
2022/05/07 06:44:47;;;;;;;21.88;12.82;;;;;;;13.99;100.00;97158.97;4974870;28;20044;-67
2022/05/07 06:47:13;;;;;;;19.38;12.90;;;;;;;13.80;100.00;97157.19;4992043;28;20038;-66
2022/05/07 06:49:38;;;;;;;22.90;12.88;;;;;;;13.79;100.00;97161.09;4992183;28;20105;-64
2022/05/07 06:52:04;;;;;;;17.77;12.55;;;;;;;13.86;100.00;97165.91;4979118;28;20143;-68
2022/05/07 06:54:29;;;;;;;17.88;12.45;;;;;;;13.75;100.00;97157.53;4980288;28;20052;-67
2022/05/07 06:56:55;;;;;;;17.58;12.38;;;;;;;13.84;100.00;97165.47;4990105;28;20045;-68
2022/05/07 06:59:21;;;;;;;19.35;14.15;;;;;;;13.58;100.00;97167.16;4992038;28;20035;-66
2022/05/07 07:01:47;;;;;;;16.98;12.60;;;;;;;13.57;100.00;97160.06;4992241;28;20050;-65
2022/05/07 07:04:12;;;;;;;25.25;14.30;;;;;;;13.35;100.00;97159.00;4991675;28;20066;-68
2022/05/07 07:06:38;;;;;;;20.88;12.43;;;;;;;13.37;100.00;97162.97;4992170;28;20065;-70
2022/05/07 07:09:04;;;;;;;16.98;12.30;;;;;;;13.39;100.00;97160.63;4974612;28;20022;-69
2022/05/07 07:11:30;;;;;;;23.15;14.98;;;;;;;13.44;100.00;97159.53;4992145;28;20060;-67
2022/05/07 07:13:56;;;;;;;20.52;13.32;;;;;;;13.59;100.00;97160.47;4974912;28;20032;-72
2022/05/07 07:16:22;;;;;;;19.25;12.35;;;;;;;13.75;100.00;97158.31;4995716;28;20042;-69
2022/05/07 07:18:47;;;;;;;18.92;13.27;;;;;;;13.41;100.00;97170.47;5005853;28;20190;-68
2022/05/07 07:21:13;;;;;;;19.77;12.52;;;;;;;13.55;100.00;97165.16;4996784;28;20045;-68
2022/05/07 07:23:39;;;;;;;17.58;12.13;;;;;;;13.72;100.00;97167.34;4996286;28;20059;-68
2022/05/07 07:26:04;;;;;;;16.88;12.10;;;;;;;13.73;100.00;97163.41;5013306;28;20029;-69
2022/05/07 07:28:31;;;;;;;18.30;12.30;;;;;;;13.85;100.00;97159.59;5007506;28;20041;-67
2022/05/07 07:30:57;;;;;;;19.33;11.98;;;;;;;13.73;100.00;97157.88;5011247;28;20030;-69
2022/05/07 07:33:23;;;;;;;15.48;11.02;;;;;;;13.61;100.00;97166.41;5003546;28;20106;-68
2022/05/07 07:35:48;;;;;;;19.88;12.93;;;;;;;13.58;100.00;97167.16;4996290;28;20439;-69
2022/05/07 07:38:14;;;;;;;20.15;12.70;;;;;;;13.52;100.00;97172.22;4978549;28;20048;-67
2022/05/07 07:40:41;;;;;;;20.40;12.60;;;;;;;13.53;100.00;97173.00;4995804;28;20026;-67
2022/05/07 07:43:06;;;;;;;19.65;12.32;;;;;;;13.67;100.00;97164.91;4995856;28;20061;-68
2022/05/07 07:48:16;;;;;;;17.58;11.65;;;;;;;13.97;100.00;97164.03;4996341;28;20399;-66
2022/05/07 07:50:42;;;;;;;17.77;11.68;;;;;;;13.94;100.00;97173.06;4995752;28;20052;-66
2022/05/07 07:53:09;;;;;;;18.52;11.95;;;;;;;14.01;100.00;97173.16;4995704;28;20129;-67
2022/05/07 07:55:36;;;;;;;25.85;12.75;;;;;;;14.10;100.00;97159.88;4995604;28;20106;-67
2022/05/07 07:58:07;;;;;;;17.08;11.50;;;;;;;14.17;100.00;97170.16;4977516;28;20030;-67
2022/05/07 08:00:35;;;;;;;18.92;12.02;;;;;;;14.02;100.00;97177.47;4987267;28;20037;-66
2022/05/07 08:03:04;;;;;;;19.40;14.05;;;;;;;13.66;100.00;97165.28;4995666;28;20518;-69
2022/05/07 08:05:32;;;;;;;21.17;13.43;;;;;;;13.30;100.00;97167.56;4994326;28;20042;-67
2022/05/07 08:13:31;;;;;;;32.67;16.48;;;;;;;13.69;100.00;97161.78;4994900;28;20034;-66
2022/05/07 08:15:57;;;;;;;20.77;13.98;;;;;;;13.76;100.00;97165.41;4995291;28;20041;-67
2022/05/07 08:18:22;;;;;;;21.58;13.98;;;;;;;14.07;100.00;97171.63;4995419;28;20030;-66
2022/05/07 08:20:47;;;;;;;19.92;12.13;;;;;;;14.34;100.00;97168.75;4977626;28;20092;-68
2022/05/07 08:23:13;;;;;;;22.90;11.85;;;;;;;14.59;100.00;97177.25;4977794;28;20513;-66
2022/05/07 08:25:38;;;;;;;16.40;12.13;;;;;;;14.53;100.00;97173.22;4983006;28;20042;-66
2022/05/07 08:28:04;;;;;;;17.77;11.60;;;;;;;14.47;100.00;97178.28;4976239;28;20112;-68
2022/05/07 08:30:30;;;;;;;20.00;12.27;;;;;;;14.74;100.00;97172.63;4994998;28;20030;-67
2022/05/07 08:32:57;;;;;;;15.52;11.90;;;;;;;14.98;100.00;97164.91;4993991;28;20057;-68
2022/05/07 08:35:22;;;;;;;17.85;11.15;;;;;;;15.22;100.00;97174.53;4994267;28;20044;-68
2022/05/07 08:37:48;;;;;;;18.05;11.25;;;;;;;15.31;100.00;97168.66;4995928;28;20117;-66
2022/05/07 08:40:16;;;;;;;18.25;11.85;;;;;;;15.57;98.96;97167.59;4999809;28;20034;-67
2022/05/07 08:42:42;;;;;;;17.10;12.10;;;;;;;15.69;96.93;97172.78;4997618;28;20058;-69
2022/05/07 08:45:09;;;;;;;18.02;11.18;;;;;;;15.73;97.25;97172.78;4997190;28;20093;-68
2022/05/07 08:47:34;;;;;;;18.05;11.60;;;;;;;15.97;95.43;97177.63;4994188;28;20105;-69
2022/05/07 08:50:00;;;;;;;19.25;11.63;;;;;;;16.09;92.25;97168.19;4994470;28;20464;-68
2022/05/07 08:52:28;;;;;;;17.75;13.05;;;;;;;14.79;98.52;97172.28;4994095;28;20034;-68
2022/05/07 08:54:53;;;;;;;19.63;11.85;;;;;;;15.56;95.20;97169.56;4991721;28;20129;-69
2022/05/07 08:57:18;;;;;;;26.38;17.42;;;;;;;14.39;100.00;97164.84;4988970;28;20030;-68
2022/05/07 08:59:44;;;;;;;32.38;18.75;;;;;;;14.60;100.00;97176.06;4995025;28;20098;-66
2022/05/07 09:02:10;;;;;;;25.20;13.98;;;;;;;14.06;100.00;97172.00;5003510;28;20041;-68
2022/05/07 09:04:38;;;;;;;18.45;14.05;;;;;;;14.47;100.00;97177.50;5005972;28;20030;-68
2022/05/07 09:07:05;;;;;;;19.75;14.07;;;;;;;14.52;100.00;97168.91;5002661;28;20391;-66
2022/05/07 09:09:31;;;;;;;24.73;15.13;;;;;;;14.59;100.00;97159.94;4984858;28;20085;-67
2022/05/07 09:11:58;;;;;;;25.48;17.23;;;;;;;14.01;100.00;97162.13;4986430;28;20522;-65
2022/05/07 09:14:30;;;;;;;32.55;17.40;;;;;;;13.96;100.00;97166.00;4994161;28;20388;-66
2022/05/07 09:16:59;;;;;;;26.13;17.40;;;;;;;14.03;100.00;97164.53;4976399;28;20100;-67
2022/05/07 09:19:27;;;;;;;22.67;16.90;;;;;;;14.16;100.00;97160.31;4977079;28;20846;-66
2022/05/07 09:22:09;;;;;;;22.20;15.90;;;;;;;14.50;100.00;97158.25;4965021;28;20053;-67
2022/05/07 09:24:35;;;;;;;27.20;18.00;;;;;;;14.74;99.75;97158.06;4962836;28;20043;-67
2022/05/07 09:27:03;;;;;;;21.63;15.68;;;;;;;14.81;99.09;97156.13;4983424;28;20034;-67
2022/05/07 09:29:30;;;;;;;29.35;17.63;;;;;;;14.73;100.00;97157.28;4963929;28;20129;-66
2022/05/07 09:32:09;;;;;;;26.08;17.45;;;;;;;14.96;99.68;97156.25;4984177;28;20105;-69
2022/05/07 09:37:35;;;;;;;25.95;17.27;;;;;;;15.05;98.58;97153.94;4982751;28;20537;-66
2022/05/07 09:40:06;;;;;;;25.03;16.20;;;;;;;15.17;98.71;97158.34;4978631;28;20137;-70
2022/05/07 09:42:33;;;;;;;25.02;16.77;;;;;;;15.56;98.54;97155.00;4996286;28;20046;-69
2022/05/07 09:45:01;;;;;;;25.08;16.98;;;;;;;15.35;95.59;97150.16;4992543;28;20053;-68
2022/05/07 09:47:31;;;;;;;23.10;15.68;;;;;;;15.60;95.74;97140.00;4984718;28;20042;-70
2022/05/07 09:58:10;;;;;;;18.75;14.65;;;;;;;16.25;89.95;97146.50;4973393;28;20510;-68
2022/05/07 10:00:46;;;;;;;26.00;14.40;;;;;;;16.97;87.79;97135.44;4963855;28;20042;-67
2022/05/07 10:03:27;;;;;;;19.02;15.10;;;;;;;16.29;92.46;97131.88;4977010;28;20054;-66
2022/05/07 10:06:40;;;;;;;22.90;16.15;;;;;;;15.60;92.46;97131.72;4966928;28;20042;-66
2022/05/07 10:09:23;;;;;;;25.35;16.08;;;;;;;15.76;93.86;97125.88;4936147;28;20030;-65
2022/05/07 10:11:57;;;;;;;22.70;16.02;;;;;;;15.95;95.15;97124.72;4986891;28;20046;-65
2022/05/07 10:14:26;;;;;;;20.70;15.82;;;;;;;16.82;86.62;97122.78;4976850;28;20057;-65
2022/05/07 10:17:09;;;;;;;;;;;;;;;16.59;90.58;97121.22;4983450;28;20136;-65
2022/05/07 10:19:39;;;;;;;20.90;15.88;;;;;;;16.43;88.88;97118.84;4958211;28;20374;-64
2022/05/07 10:22:24;;;;;;;;;;;;;;;17.02;86.50;97122.41;4979875;28;20042;-64
2022/05/07 10:25:10;;;;;;;20.90;14.98;;;;;;;16.95;86.01;97115.66;4982858;28;19917;-65
2022/05/07 10:27:44;;;;;;;18.70;13.65;;;;;;;17.00;85.49;97114.50;4979591;28;20077;-65
2022/05/07 10:30:14;;;;;;;21.10;12.80;;;;;;;15.90;87.27;97111.31;4979441;28;20556;-64
2022/05/07 10:32:59;;;;;;;21.92;15.23;;;;;;;15.69;86.37;97112.03;4965019;28;20050;-65
2022/05/07 10:35:57;;;;;;;18.85;14.70;;;;;;;15.70;89.89;97112.81;4958492;28;20041;-65
2022/05/07 10:38:28;;;;;;;22.85;14.68;;;;;;;15.76;91.36;97114.84;4959222;28;20206;-65
2022/05/07 10:40:56;;;;;;;20.45;15.15;;;;;;;15.79;90.43;97107.72;4962813;28;20043;-64
2022/05/07 10:43:38;;;;;;;22.60;14.73;;;;;;;16.77;87.39;97107.38;4967563;28;20149;-65
2022/05/07 10:46:12;;;;;;;19.85;13.27;;;;;;;17.02;86.51;97106.56;4971512;28;20454;-66
2022/05/07 10:49:10;;;;;;;19.02;13.15;;;;;;;17.74;81.26;97095.22;4982341;28;20039;-65
2022/05/07 10:51:50;;;;;;;19.10;13.52;;;;;;;18.01;78.33;97091.91;4978090;28;20046;-65
2022/05/07 10:54:26;;;;;;;18.02;13.20;;;;;;;16.90;78.66;97096.72;4977587;28;20038;-65
2022/05/07 10:56:56;;;;;;;17.38;11.80;;;;;;;16.57;77.28;97095.16;4983372;28;20053;-65
2022/05/07 10:59:24;;;;;;;20.20;12.60;;;;;;;16.22;79.42;97088.44;4980877;28;20494;-64
2022/05/07 11:01:50;;;;;;;17.25;12.23;;;;;;;16.25;82.50;97079.38;4985282;28;20515;-65
2022/05/07 11:04:19;;;;;;;16.52;12.23;;;;;;;16.75;81.20;97086.84;4970987;28;20051;-64
2022/05/07 11:06:47;;;;;;;15.20;12.30;;;;;;;16.80;76.59;97092.75;4962356;28;20049;-65
2022/05/07 11:09:23;;;;;;;16.60;12.38;;;;;;;17.30;75.66;97094.59;4960848;28;20050;-64
2022/05/07 11:11:54;;;;;;;16.92;12.73;;;;;;;17.33;75.97;97079.97;4979668;28;20053;-64
2022/05/07 11:14:23;;;;;;;15.02;11.15;;;;;;;17.66;76.83;97082.56;4971757;28;20070;-64
2022/05/07 11:16:54;;;;;;;15.73;11.05;;;;;;;18.31;76.45;97074.63;4981441;28;20138;-65
2022/05/07 11:19:23;;;;;;;14.68;12.05;;;;;;;17.66;71.47;97071.50;4977179;28;20069;-65
2022/05/07 11:21:52;;;;;;;16.20;11.57;;;;;;;17.35;77.47;97069.28;4983079;28;20499;-65
2022/05/07 11:24:20;;;;;;;17.77;13.88;;;;;;;17.37;79.80;97066.88;4979569;28;20038;-66
2022/05/07 11:26:53;;;;;;;25.27;17.02;;;;;;;17.68;80.88;97069.91;4983028;28;20130;-65
2022/05/07 11:29:19;;;;;;;23.42;15.80;;;;;;;17.71;81.06;97062.75;4958081;28;20130;-66
2022/05/07 11:31:53;;;;;;;19.33;14.73;;;;;;;17.90;80.45;97051.19;4982377;28;20149;-66
2022/05/07 11:34:28;;;;;;;17.90;12.80;;;;;;;18.33;78.12;97061.94;4977237;28;20051;-65
2022/05/07 11:36:53;;;;;;;21.25;14.63;;;;;;;18.24;78.73;97061.63;4981521;28;20043;-67
2022/05/07 11:39:19;;;;;;;22.10;14.38;;;;;;;18.03;80.49;97059.81;4975062;28;20101;-65
2022/05/07 11:41:52;;;;;;;24.17;14.77;;;;;;;17.52;80.48;97066.81;4982314;28;20046;-65
2022/05/07 11:47:22;;;;;;;21.80;14.35;;;;;;;17.66;82.26;97058.44;4977238;28;20498;-66
2022/05/07 11:50:06;;;;;;;18.40;13.75;;;;;;;17.92;80.90;97048.03;4982403;28;20113;-65
2022/05/07 11:52:32;;;;;;;23.42;15.88;;;;;;;17.83;80.76;97056.75;4979130;28;20125;-64